sensor_id;sensor_type;location;lat;lon;timestamp;pressure;altitude;pressure_sealevel;temperature;humidity
75497;BME280;64074;47.540;19.072;2022-12-18T00:02:02;102006.13;;;-1.97;76.73
75497;BME280;64074;47.540;19.072;2022-12-18T00:05:10;102020.34;;;-1.81;75.64
75497;BME280;64074;47.540;19.072;2022-12-18T00:08:19;102026.81;;;-1.84;77.04
75497;BME280;64074;47.540;19.072;2022-12-18T00:11:37;102037.53;;;-2.08;77.63
75497;BME280;64074;47.540;19.072;2022-12-18T00:14:59;102044.47;;;-1.91;76.89
75497;BME280;64074;47.540;19.072;2022-12-18T00:18:22;102044.81;;;-1.94;76.95
75497;BME280;64074;47.540;19.072;2022-12-18T00:21:47;102059.75;;;-2.01;77.06
75497;BME280;64074;47.540;19.072;2022-12-18T00:25:08;102083.03;;;-1.95;76.90
75497;BME280;64074;47.540;19.072;2022-12-18T00:28:29;102087.50;;;-1.96;77.14
75497;BME280;64074;47.540;19.072;2022-12-18T00:31:52;102084.50;;;-2.01;76.06
75497;BME280;64074;47.540;19.072;2022-12-18T00:35:14;102091.16;;;-1.97;77.31
75497;BME280;64074;47.540;19.072;2022-12-18T00:38:37;102087.81;;;-1.99;76.45
75497;BME280;64074;47.540;19.072;2022-12-18T00:41:48;102096.66;;;-1.98;76.26
75497;BME280;64074;47.540;19.072;2022-12-18T00:45:27;102090.66;;;-2.08;76.98
75497;BME280;64074;47.540;19.072;2022-12-18T00:48:48;102097.47;;;-1.98;77.11
75497;BME280;64074;47.540;19.072;2022-12-18T00:52:05;102099.13;;;-2.05;76.80
75497;BME280;64074;47.540;19.072;2022-12-18T00:55:28;102097.78;;;-2.01;76.06
75497;BME280;64074;47.540;19.072;2022-12-18T00:58:51;102097.78;;;-2.01;77.14
75497;BME280;64074;47.540;19.072;2022-12-18T01:02:20;102114.28;;;-2.22;77.18
75497;BME280;64074;47.540;19.072;2022-12-18T01:05:39;102123.53;;;-2.01;76.10
75497;BME280;64074;47.540;19.072;2022-12-18T01:08:57;102124.88;;;-2.05;76.54
75497;BME280;64074;47.540;19.072;2022-12-18T01:12:19;102127.03;;;-2.09;76.75
75497;BME280;64074;47.540;19.072;2022-12-18T01:15:51;102126.38;;;-2.03;76.86
75497;BME280;64074;47.540;19.072;2022-12-18T01:19:04;102123.06;;;-2.13;76.48
75497;BME280;64074;47.540;19.072;2022-12-18T01:22:24;102139.03;;;-2.21;78.05
75497;BME280;64074;47.540;19.072;2022-12-18T01:25:45;102134.34;;;-2.27;77.25
75497;BME280;64074;47.540;19.072;2022-12-18T01:29:12;102136.88;;;-2.18;77.46
75497;BME280;64074;47.540;19.072;2022-12-18T01:32:31;102141.50;;;-2.20;77.77
75497;BME280;64074;47.540;19.072;2022-12-18T01:35:51;102139.19;;;-2.23;76.96
75497;BME280;64074;47.540;19.072;2022-12-18T01:39:13;102135.38;;;-2.20;77.09
75497;BME280;64074;47.540;19.072;2022-12-18T01:42:24;102152.28;;;-2.13;78.10
75497;BME280;64074;47.540;19.072;2022-12-18T01:45:29;102148.81;;;-2.13;77.56
75497;BME280;64074;47.540;19.072;2022-12-18T01:48:40;102145.97;;;-2.12;77.51
75497;BME280;64074;47.540;19.072;2022-12-18T01:52:02;102162.44;;;-2.17;77.37
75497;BME280;64074;47.540;19.072;2022-12-18T01:55:26;102159.25;;;-2.04;77.19
75497;BME280;64074;47.540;19.072;2022-12-18T02:02:03;102157.94;;;-2.08;77.65
75497;BME280;64074;47.540;19.072;2022-12-18T02:09:32;102169.22;;;-2.14;78.00
75497;BME280;64074;47.540;19.072;2022-12-18T02:13:16;102182.69;;;-2.07;78.09
75497;BME280;64074;47.540;19.072;2022-12-18T02:16:34;102188.66;;;-2.13;77.43
75497;BME280;64074;47.540;19.072;2022-12-18T02:27:14;102195.81;;;-2.14;76.67
75497;BME280;64074;47.540;19.072;2022-12-18T02:30:47;102188.16;;;-2.09;76.71
75497;BME280;64074;47.540;19.072;2022-12-18T02:34:10;102200.75;;;-2.27;77.00
75497;BME280;64074;47.540;19.072;2022-12-18T02:37:29;102205.78;;;-2.16;77.32
75497;BME280;64074;47.540;19.072;2022-12-18T02:40:53;102206.25;;;-2.12;77.87
75497;BME280;64074;47.540;19.072;2022-12-18T02:44:14;102213.91;;;-2.18;77.41
75497;BME280;64074;47.540;19.072;2022-12-18T02:47:28;102216.03;;;-2.37;77.03
75497;BME280;64074;47.540;19.072;2022-12-18T02:51:18;102223.84;;;-2.28;76.78
75497;BME280;64074;47.540;19.072;2022-12-18T02:58:18;102235.50;;;-2.21;77.70
75497;BME280;64074;47.540;19.072;2022-12-18T03:01:53;102239.44;;;-2.25;77.74
75497;BME280;64074;47.540;19.072;2022-12-18T03:05:12;102241.78;;;-2.30;78.16
75497;BME280;64074;47.540;19.072;2022-12-18T03:08:28;102244.25;;;-2.36;77.53
75497;BME280;64074;47.540;19.072;2022-12-18T03:11:40;102247.25;;;-2.31;77.41
75497;BME280;64074;47.540;19.072;2022-12-18T03:15:30;102248.56;;;-2.35;77.64
75497;BME280;64074;47.540;19.072;2022-12-18T03:18:58;102249.56;;;-2.36;78.05
75497;BME280;64074;47.540;19.072;2022-12-18T03:22:13;102246.09;;;-2.37;78.50
75497;BME280;64074;47.540;19.072;2022-12-18T03:25:30;102256.72;;;-2.37;78.90
75497;BME280;64074;47.540;19.072;2022-12-18T03:29:07;102266.81;;;-2.40;78.67
75497;BME280;64074;47.540;19.072;2022-12-18T03:32:29;102267.66;;;-2.40;77.84
75497;BME280;64074;47.540;19.072;2022-12-18T03:35:43;102276.28;;;-2.38;78.21
75497;BME280;64074;47.540;19.072;2022-12-18T03:39:04;102281.09;;;-2.41;77.22
75497;BME280;64074;47.540;19.072;2022-12-18T03:42:48;102289.22;;;-2.43;77.02
75497;BME280;64074;47.540;19.072;2022-12-18T03:56:21;102291.69;;;-2.50;78.01
75497;BME280;64074;47.540;19.072;2022-12-18T03:59:31;102288.72;;;-2.46;78.30
75497;BME280;64074;47.540;19.072;2022-12-18T04:02:49;102294.16;;;-2.48;77.38
75497;BME280;64074;47.540;19.072;2022-12-18T04:06:13;102297.69;;;-2.47;77.12
75497;BME280;64074;47.540;19.072;2022-12-18T04:09:26;102301.53;;;-2.42;77.97
75497;BME280;64074;47.540;19.072;2022-12-18T04:12:47;102313.31;;;-2.44;77.49
75497;BME280;64074;47.540;19.072;2022-12-18T04:16:10;102315.13;;;-2.45;78.28
75497;BME280;64074;47.540;19.072;2022-12-18T04:19:35;102309.44;;;-2.50;78.40
75497;BME280;64074;47.540;19.072;2022-12-18T04:22:57;102309.75;;;-2.53;78.49
75497;BME280;64074;47.540;19.072;2022-12-18T04:26:18;102315.56;;;-2.58;77.48
75497;BME280;64074;47.540;19.072;2022-12-18T04:29:52;102309.06;;;-2.63;77.47
75497;BME280;64074;47.540;19.072;2022-12-18T04:33:03;102314.53;;;-2.65;77.44
75497;BME280;64074;47.540;19.072;2022-12-18T04:36:24;102311.69;;;-2.71;78.97
75497;BME280;64074;47.540;19.072;2022-12-18T04:39:45;102318.66;;;-2.70;78.37
75497;BME280;64074;47.540;19.072;2022-12-18T04:43:07;102329.63;;;-2.65;78.60
75497;BME280;64074;47.540;19.072;2022-12-18T04:46:16;102335.63;;;-2.63;78.23
75497;BME280;64074;47.540;19.072;2022-12-18T04:49:26;102342.59;;;-2.62;78.79
75497;BME280;64074;47.540;19.072;2022-12-18T04:52:36;102347.19;;;-2.72;79.09
75497;BME280;64074;47.540;19.072;2022-12-18T04:56:09;102354.00;;;-2.70;78.59
75497;BME280;64074;47.540;19.072;2022-12-18T04:59:19;102348.03;;;-2.72;78.39
75497;BME280;64074;47.540;19.072;2022-12-18T05:02:28;102352.13;;;-2.78;78.81
75497;BME280;64074;47.540;19.072;2022-12-18T05:05:35;102349.75;;;-2.89;78.54
75497;BME280;64074;47.540;19.072;2022-12-18T05:08:39;102360.59;;;-2.74;78.23
75497;BME280;64074;47.540;19.072;2022-12-18T05:11:48;102363.38;;;-2.84;78.88
75497;BME280;64074;47.540;19.072;2022-12-18T05:15:11;102372.34;;;-2.85;78.87
75497;BME280;64074;47.540;19.072;2022-12-18T05:18:32;102365.03;;;-2.83;77.96
75497;BME280;64074;47.540;19.072;2022-12-18T05:21:40;102361.09;;;-2.79;78.59
75497;BME280;64074;47.540;19.072;2022-12-18T05:24:44;102369.00;;;-2.87;79.03
75497;BME280;64074;47.540;19.072;2022-12-18T05:27:56;102378.00;;;-2.80;78.99
75497;BME280;64074;47.540;19.072;2022-12-18T05:31:13;102382.47;;;-2.80;78.51
75497;BME280;64074;47.540;19.072;2022-12-18T05:34:29;102390.25;;;-2.87;79.10
75497;BME280;64074;47.540;19.072;2022-12-18T05:37:56;102393.94;;;-2.80;79.26
75497;BME280;64074;47.540;19.072;2022-12-18T05:41:23;102398.03;;;-2.85;78.97
75497;BME280;64074;47.540;19.072;2022-12-18T05:44:43;102396.38;;;-2.86;78.01
75497;BME280;64074;47.540;19.072;2022-12-18T05:48:04;102396.22;;;-2.85;78.21
75497;BME280;64074;47.540;19.072;2022-12-18T05:51:30;102398.69;;;-2.91;79.02
75497;BME280;64074;47.540;19.072;2022-12-18T05:54:51;102409.13;;;-2.90;78.66
75497;BME280;64074;47.540;19.072;2022-12-18T05:58:12;102412.47;;;-2.88;78.67
75497;BME280;64074;47.540;19.072;2022-12-18T06:01:32;102414.91;;;-2.94;79.25
75497;BME280;64074;47.540;19.072;2022-12-18T06:04:59;102417.78;;;-2.88;78.47
75497;BME280;64074;47.540;19.072;2022-12-18T06:08:14;102426.59;;;-3.05;79.28
75497;BME280;64074;47.540;19.072;2022-12-18T06:11:25;102427.25;;;-3.03;79.26
75497;BME280;64074;47.540;19.072;2022-12-18T06:14:42;102428.63;;;-2.99;79.34
75497;BME280;64074;47.540;19.072;2022-12-18T06:17:52;102425.38;;;-2.93;78.37
75497;BME280;64074;47.540;19.072;2022-12-18T06:21:00;102423.38;;;-2.91;78.08
75497;BME280;64074;47.540;19.072;2022-12-18T06:24:07;102434.47;;;-2.95;78.66
75497;BME280;64074;47.540;19.072;2022-12-18T06:27:14;102437.28;;;-2.97;78.37
75497;BME280;64074;47.540;19.072;2022-12-18T06:30:23;102443.28;;;-2.95;78.09
75497;BME280;64074;47.540;19.072;2022-12-18T06:33:38;102446.59;;;-2.93;78.05
75497;BME280;64074;47.540;19.072;2022-12-18T06:36:59;102456.69;;;-2.96;77.77
75497;BME280;64074;47.540;19.072;2022-12-18T06:40:22;102456.81;;;-2.98;78.54
75497;BME280;64074;47.540;19.072;2022-12-18T06:43:44;102457.97;;;-3.00;78.71
75497;BME280;64074;47.540;19.072;2022-12-18T06:47:08;102468.28;;;-2.97;78.14
75497;BME280;64074;47.540;19.072;2022-12-18T06:50:28;102471.78;;;-3.15;78.84
75497;BME280;64074;47.540;19.072;2022-12-18T06:53:49;102476.09;;;-2.96;78.26
75497;BME280;64074;47.540;19.072;2022-12-18T06:56:59;102483.13;;;-2.87;78.24
75497;BME280;64074;47.540;19.072;2022-12-18T07:00:35;102497.22;;;-2.86;77.92
75497;BME280;64074;47.540;19.072;2022-12-18T07:04:02;102503.06;;;-2.83;77.35
75497;BME280;64074;47.540;19.072;2022-12-18T07:07:20;102507.38;;;-2.82;77.84
75497;BME280;64074;47.540;19.072;2022-12-18T07:10:43;102502.44;;;-2.76;78.68
75497;BME280;64074;47.540;19.072;2022-12-18T07:14:06;102510.78;;;-2.71;77.46
75497;BME280;64074;47.540;19.072;2022-12-18T07:17:28;102518.44;;;-2.68;77.44
75497;BME280;64074;47.540;19.072;2022-12-18T07:20:51;102523.13;;;-2.62;77.75
75497;BME280;64074;47.540;19.072;2022-12-18T07:24:16;102524.97;;;-2.63;78.08
75497;BME280;64074;47.540;19.072;2022-12-18T07:27:41;102536.94;;;-2.59;78.18
75497;BME280;64074;47.540;19.072;2022-12-18T07:30:54;102532.75;;;-2.61;77.49
75497;BME280;64074;47.540;19.072;2022-12-18T07:34:23;102544.75;;;-2.57;78.01
75497;BME280;64074;47.540;19.072;2022-12-18T07:37:43;102550.03;;;-2.57;78.70
75497;BME280;64074;47.540;19.072;2022-12-18T07:41:10;102560.44;;;-2.46;78.01
75497;BME280;64074;47.540;19.072;2022-12-18T07:44:24;102564.91;;;-2.46;77.71
75497;BME280;64074;47.540;19.072;2022-12-18T07:47:44;102573.41;;;-2.43;78.81
75497;BME280;64074;47.540;19.072;2022-12-18T07:51:06;102569.59;;;-2.40;77.98
75497;BME280;64074;47.540;19.072;2022-12-18T07:54:27;102570.13;;;-2.37;77.26
75497;BME280;64074;47.540;19.072;2022-12-18T07:57:38;102578.44;;;-2.32;77.98
75497;BME280;64074;47.540;19.072;2022-12-18T08:01:10;102581.47;;;-2.27;77.13
75497;BME280;64074;47.540;19.072;2022-12-18T08:04:14;102584.59;;;-2.05;75.68
75497;BME280;64074;47.540;19.072;2022-12-18T08:07:23;102588.00;;;-1.95;76.40
75497;BME280;64074;47.540;19.072;2022-12-18T08:10:37;102595.16;;;-1.96;75.97
75497;BME280;64074;47.540;19.072;2022-12-18T08:13:59;102603.88;;;-2.03;75.98
75497;BME280;64074;47.540;19.072;2022-12-18T08:17:20;102603.72;;;-2.02;74.80
75497;BME280;64074;47.540;19.072;2022-12-18T08:20:40;102607.88;;;-1.99;74.98
75497;BME280;64074;47.540;19.072;2022-12-18T08:24:09;102602.28;;;-1.96;76.45
75497;BME280;64074;47.540;19.072;2022-12-18T08:27:30;102605.63;;;-1.94;74.72
75497;BME280;64074;47.540;19.072;2022-12-18T08:30:51;102613.81;;;-1.79;75.67
75497;BME280;64074;47.540;19.072;2022-12-18T08:34:13;102622.63;;;-1.79;75.41
75497;BME280;64074;47.540;19.072;2022-12-18T08:37:23;102616.50;;;-1.79;74.69
75497;BME280;64074;47.540;19.072;2022-12-18T08:40:35;102620.50;;;-1.75;73.83
75497;BME280;64074;47.540;19.072;2022-12-18T08:43:41;102609.59;;;-1.64;73.75
75497;BME280;64074;47.540;19.072;2022-12-18T08:47:06;102607.13;;;-1.58;73.98
75497;BME280;64074;47.540;19.072;2022-12-18T08:50:16;102618.44;;;-1.56;73.38
75497;BME280;64074;47.540;19.072;2022-12-18T08:53:30;102622.72;;;-1.71;71.76
75497;BME280;64074;47.540;19.072;2022-12-18T08:56:38;102625.94;;;-1.51;72.29
75497;BME280;64074;47.540;19.072;2022-12-18T08:59:45;102619.03;;;-1.36;71.65
75497;BME280;64074;47.540;19.072;2022-12-18T09:02:54;102636.34;;;-1.32;71.06
75497;BME280;64074;47.540;19.072;2022-12-18T09:06:15;102647.16;;;-1.25;71.76
75497;BME280;64074;47.540;19.072;2022-12-18T09:09:36;102648.22;;;-1.18;71.13
75497;BME280;64074;47.540;19.072;2022-12-18T09:12:57;102646.72;;;-1.20;70.92
75497;BME280;64074;47.540;19.072;2022-12-18T09:16:07;102653.53;;;-1.18;70.68
75497;BME280;64074;47.540;19.072;2022-12-18T09:19:38;102655.41;;;-1.02;70.61
75497;BME280;64074;47.540;19.072;2022-12-18T09:22:42;102649.97;;;-0.93;69.69
75497;BME280;64074;47.540;19.072;2022-12-18T09:25:45;102650.28;;;-0.96;69.72
75497;BME280;64074;47.540;19.072;2022-12-18T09:28:55;102646.63;;;-0.86;71.07
75497;BME280;64074;47.540;19.072;2022-12-18T09:32:19;102643.13;;;-0.95;69.30
75497;BME280;64074;47.540;19.072;2022-12-18T09:35:27;102642.66;;;-0.82;69.94
75497;BME280;64074;47.540;19.072;2022-12-18T09:38:33;102641.66;;;-0.81;70.53
75497;BME280;64074;47.540;19.072;2022-12-18T09:41:50;102640.84;;;-0.66;69.37
75497;BME280;64074;47.540;19.072;2022-12-18T09:45:12;102642.03;;;-0.44;69.97
75497;BME280;64074;47.540;19.072;2022-12-18T09:48:29;102644.69;;;-0.36;68.74
75497;BME280;64074;47.540;19.072;2022-12-18T09:51:51;102643.03;;;-0.37;67.96
75497;BME280;64074;47.540;19.072;2022-12-18T09:55:30;102642.56;;;-0.24;68.20
75497;BME280;64074;47.540;19.072;2022-12-18T09:58:55;102640.03;;;-0.25;68.11
75497;BME280;64074;47.540;19.072;2022-12-18T10:02:00;102644.53;;;-0.10;67.26
75497;BME280;64074;47.540;19.072;2022-12-18T10:05:37;102632.34;;;-0.04;67.18
75497;BME280;64074;47.540;19.072;2022-12-18T10:16:33;102639.47;;;0.20;66.24
75497;BME280;64074;47.540;19.072;2022-12-18T10:23:09;102638.44;;;0.37;63.09
75497;BME280;64074;47.540;19.072;2022-12-18T10:26:21;102639.41;;;0.44;64.14
75497;BME280;64074;47.540;19.072;2022-12-18T10:29:43;102629.22;;;0.56;63.50
75497;BME280;64074;47.540;19.072;2022-12-18T10:33:03;102620.94;;;0.35;64.12
75497;BME280;64074;47.540;19.072;2022-12-18T10:36:27;102626.50;;;0.64;63.12
75497;BME280;64074;47.540;19.072;2022-12-18T10:40:16;102621.44;;;0.77;63.11
75497;BME280;64074;47.540;19.072;2022-12-18T10:46:28;102627.63;;;0.78;62.69
75497;BME280;64074;47.540;19.072;2022-12-18T10:49:46;102622.47;;;0.99;62.33
75497;BME280;64074;47.540;19.072;2022-12-18T10:53:26;102625.13;;;1.07;62.19
75497;BME280;64074;47.540;19.072;2022-12-18T10:56:36;102621.22;;;1.18;62.24
75497;BME280;64074;47.540;19.072;2022-12-18T10:59:53;102620.63;;;1.31;61.26
75497;BME280;64074;47.540;19.072;2022-12-18T11:03:35;102617.13;;;1.30;61.33
75497;BME280;64074;47.540;19.072;2022-12-18T11:10:20;102614.03;;;1.41;59.06
75497;BME280;64074;47.540;19.072;2022-12-18T11:13:38;102606.19;;;1.40;57.94
75497;BME280;64074;47.540;19.072;2022-12-18T11:16:49;102603.75;;;1.53;58.11
75497;BME280;64074;47.540;19.072;2022-12-18T11:20:35;102603.41;;;1.56;58.11
75497;BME280;64074;47.540;19.072;2022-12-18T11:23:49;102609.13;;;1.68;57.95
75497;BME280;64074;47.540;19.072;2022-12-18T11:27:02;102604.69;;;1.60;57.61
75497;BME280;64074;47.540;19.072;2022-12-18T11:30:36;102605.31;;;1.85;57.22
75497;BME280;64074;47.540;19.072;2022-12-18T11:34:01;102606.06;;;1.94;55.51
75497;BME280;64074;47.540;19.072;2022-12-18T11:37:35;102603.97;;;2.04;55.72
75497;BME280;64074;47.540;19.072;2022-12-18T11:40:51;102587.72;;;2.05;55.79
75497;BME280;64074;47.540;19.072;2022-12-18T11:44:03;102593.06;;;2.20;55.92
75497;BME280;64074;47.540;19.072;2022-12-18T11:50:52;102588.44;;;2.43;56.40
75497;BME280;64074;47.540;19.072;2022-12-18T11:54:12;102585.13;;;2.56;55.82
75497;BME280;64074;47.540;19.072;2022-12-18T12:08:22;102576.00;;;2.87;54.41
75497;BME280;64074;47.540;19.072;2022-12-18T12:15:10;102575.97;;;2.65;54.09
75497;BME280;64074;47.540;19.072;2022-12-18T12:22:32;102572.00;;;2.97;54.81
75497;BME280;64074;47.540;19.072;2022-12-18T12:25:48;102576.38;;;2.98;55.11
75497;BME280;64074;47.540;19.072;2022-12-18T12:29:05;102573.00;;;2.96;55.05
75497;BME280;64074;47.540;19.072;2022-12-18T12:39:13;102577.94;;;2.57;55.95
75497;BME280;64074;47.540;19.072;2022-12-18T12:42:39;102572.38;;;2.43;55.80
75497;BME280;64074;47.540;19.072;2022-12-18T12:46:13;102583.75;;;2.31;56.22
75497;BME280;64074;47.540;19.072;2022-12-18T12:49:31;102590.59;;;2.19;56.84
75497;BME280;64074;47.540;19.072;2022-12-18T12:52:48;102600.09;;;2.21;57.25
75497;BME280;64074;47.540;19.072;2022-12-18T12:55:53;102612.72;;;2.12;57.78
75497;BME280;64074;47.540;19.072;2022-12-18T12:59:13;102606.09;;;2.08;58.69
75497;BME280;64074;47.540;19.072;2022-12-18T13:05:48;102604.13;;;1.88;59.05
75497;BME280;64074;47.540;19.072;2022-12-18T13:09:00;102612.50;;;1.84;59.49
75497;BME280;64074;47.540;19.072;2022-12-18T13:12:09;102613.16;;;1.87;59.23
75497;BME280;64074;47.540;19.072;2022-12-18T13:15:47;102608.63;;;1.87;59.21
75497;BME280;64074;47.540;19.072;2022-12-18T13:19:21;102609.84;;;1.84;59.80
75497;BME280;64074;47.540;19.072;2022-12-18T13:22:47;102612.03;;;1.81;60.09
75497;BME280;64074;47.540;19.072;2022-12-18T13:26:28;102619.34;;;1.87;59.34
75497;BME280;64074;47.540;19.072;2022-12-18T13:29:45;102621.09;;;1.95;58.78
75497;BME280;64074;47.540;19.072;2022-12-18T13:36:31;102629.47;;;1.77;59.27
75497;BME280;64074;47.540;19.072;2022-12-18T13:39:39;102633.81;;;1.78;58.05
75497;BME280;64074;47.540;19.072;2022-12-18T13:42:50;102629.47;;;1.92;57.13
75497;BME280;64074;47.540;19.072;2022-12-18T13:46:30;102633.34;;;1.89;57.57
75497;BME280;64074;47.540;19.072;2022-12-18T13:49:48;102635.28;;;1.80;57.72
75497;BME280;64074;47.540;19.072;2022-12-18T13:52:57;102639.03;;;1.71;58.59
75497;BME280;64074;47.540;19.072;2022-12-18T13:56:07;102645.44;;;1.62;59.74
75497;BME280;64074;47.540;19.072;2022-12-18T13:59:38;102648.38;;;1.52;59.80
75497;BME280;64074;47.540;19.072;2022-12-18T14:02:59;102635.59;;;1.40;61.24
75497;BME280;64074;47.540;19.072;2022-12-18T14:06:25;102647.19;;;1.32;61.40
75497;BME280;64074;47.540;19.072;2022-12-18T14:09:55;102650.75;;;1.25;62.38
75497;BME280;64074;47.540;19.072;2022-12-18T14:13:28;102650.25;;;1.21;62.95
75497;BME280;64074;47.540;19.072;2022-12-18T14:16:37;102648.47;;;1.13;62.31
75497;BME280;64074;47.540;19.072;2022-12-18T14:19:49;102652.00;;;1.06;64.22
75497;BME280;64074;47.540;19.072;2022-12-18T14:22:57;102649.03;;;1.01;63.21
75497;BME280;64074;47.540;19.072;2022-12-18T14:26:25;102648.34;;;0.99;63.97
75497;BME280;64074;47.540;19.072;2022-12-18T14:29:31;102649.91;;;0.93;63.63
75497;BME280;64074;47.540;19.072;2022-12-18T14:32:40;102654.94;;;0.88;63.74
75497;BME280;64074;47.540;19.072;2022-12-18T14:36:03;102656.13;;;0.85;64.31
75497;BME280;64074;47.540;19.072;2022-12-18T14:39:23;102663.81;;;0.80;64.77
75497;BME280;64074;47.540;19.072;2022-12-18T14:42:45;102669.00;;;0.74;64.44
75497;BME280;64074;47.540;19.072;2022-12-18T14:46:00;102681.03;;;0.70;65.27
75497;BME280;64074;47.540;19.072;2022-12-18T14:49:32;102680.41;;;0.59;65.37
75497;BME280;64074;47.540;19.072;2022-12-18T14:52:49;102695.63;;;0.51;66.00
75497;BME280;64074;47.540;19.072;2022-12-18T14:56:21;102701.78;;;0.43;66.62
75497;BME280;64074;47.540;19.072;2022-12-18T14:59:33;102693.47;;;0.38;66.19
75497;BME280;64074;47.540;19.072;2022-12-18T15:02:42;102696.81;;;0.32;66.23
75497;BME280;64074;47.540;19.072;2022-12-18T15:06:21;102701.00;;;0.26;67.15
75497;BME280;64074;47.540;19.072;2022-12-18T15:13:09;102715.44;;;0.56;68.47
75497;BME280;64074;47.540;19.072;2022-12-18T15:16:19;102719.31;;;0.54;68.04
75497;BME280;64074;47.540;19.072;2022-12-18T15:19:50;102719.47;;;0.44;67.03
75497;BME280;64074;47.540;19.072;2022-12-18T15:26:36;102726.50;;;0.37;66.71
75497;BME280;64074;47.540;19.072;2022-12-18T15:30:24;102727.97;;;0.40;66.92
75497;BME280;64074;47.540;19.072;2022-12-18T15:33:34;102740.50;;;0.39;66.32
75497;BME280;64074;47.540;19.072;2022-12-18T15:36:44;102743.66;;;0.43;66.21
75497;BME280;64074;47.540;19.072;2022-12-18T15:40:06;102748.50;;;0.39;66.86
75497;BME280;64074;47.540;19.072;2022-12-18T15:43:17;102750.34;;;0.39;65.39
75497;BME280;64074;47.540;19.072;2022-12-18T15:46:49;102757.66;;;0.20;66.28
75497;BME280;64074;47.540;19.072;2022-12-18T15:50:10;102770.69;;;0.23;66.67
75497;BME280;64074;47.540;19.072;2022-12-18T15:53:20;102777.69;;;0.24;67.12
75497;BME280;64074;47.540;19.072;2022-12-18T15:56:52;102780.34;;;0.24;67.25
75497;BME280;64074;47.540;19.072;2022-12-18T16:00:27;102780.69;;;0.21;67.17
75497;BME280;64074;47.540;19.072;2022-12-18T16:03:40;102783.19;;;0.15;67.07
75497;BME280;64074;47.540;19.072;2022-12-18T16:07:00;102786.53;;;0.01;67.29
75497;BME280;64074;47.540;19.072;2022-12-18T16:10:35;102789.50;;;-0.19;68.89
75497;BME280;64074;47.540;19.072;2022-12-18T16:13:43;102791.28;;;-0.36;69.35
75497;BME280;64074;47.540;19.072;2022-12-18T16:17:10;102784.75;;;-0.49;70.50
75497;BME280;64074;47.540;19.072;2022-12-18T16:20:24;102791.75;;;-0.48;69.82
75497;BME280;64074;47.540;19.072;2022-12-18T16:23:54;102800.38;;;-0.54;70.78
75497;BME280;64074;47.540;19.072;2022-12-18T16:27:07;102795.38;;;-0.57;70.92
75497;BME280;64074;47.540;19.072;2022-12-18T16:30:37;102812.19;;;-0.57;72.00
75497;BME280;64074;47.540;19.072;2022-12-18T16:34:30;102807.69;;;-0.56;70.87
75497;BME280;64074;47.540;19.072;2022-12-18T16:37:39;102810.00;;;-0.62;72.04
75497;BME280;64074;47.540;19.072;2022-12-18T16:40:48;102801.50;;;-0.73;72.78
75497;BME280;64074;47.540;19.072;2022-12-18T16:44:14;102806.41;;;-0.86;72.52
75497;BME280;64074;47.540;19.072;2022-12-18T16:47:23;102816.53;;;-0.90;72.87
75497;BME280;64074;47.540;19.072;2022-12-18T16:50:44;102825.16;;;-0.96;73.72
75497;BME280;64074;47.540;19.072;2022-12-18T16:53:55;102827.00;;;-0.97;74.18
75497;BME280;64074;47.540;19.072;2022-12-18T16:56:58;102823.66;;;-0.99;74.81
75497;BME280;64074;47.540;19.072;2022-12-18T17:00:09;102822.66;;;-0.98;74.49
75497;BME280;64074;47.540;19.072;2022-12-18T17:03:36;102823.13;;;-1.02;74.87
75497;BME280;64074;47.540;19.072;2022-12-18T17:06:55;102808.94;;;-1.11;74.19
75497;BME280;64074;47.540;19.072;2022-12-18T17:10:20;102805.91;;;-1.16;75.21
75497;BME280;64074;47.540;19.072;2022-12-18T17:13:25;102812.06;;;-1.15;73.84
75497;BME280;64074;47.540;19.072;2022-12-18T17:16:38;102815.25;;;-1.12;74.41
75497;BME280;64074;47.540;19.072;2022-12-18T17:19:50;102807.59;;;-1.15;74.37
75497;BME280;64074;47.540;19.072;2022-12-18T17:23:13;102803.56;;;-1.19;75.40
75497;BME280;64074;47.540;19.072;2022-12-18T17:26:26;102813.00;;;-1.25;75.58
75497;BME280;64074;47.540;19.072;2022-12-18T17:29:43;102819.25;;;-1.34;75.30
75497;BME280;64074;47.540;19.072;2022-12-18T17:33:07;102817.28;;;-1.32;74.33
75497;BME280;64074;47.540;19.072;2022-12-18T17:36:34;102815.88;;;-1.18;73.65
75497;BME280;64074;47.540;19.072;2022-12-18T17:40:05;102816.59;;;-1.08;74.13
75497;BME280;64074;47.540;19.072;2022-12-18T17:43:16;102815.91;;;-1.10;73.89
75497;BME280;64074;47.540;19.072;2022-12-18T17:46:32;102821.41;;;-1.11;74.38
75497;BME280;64074;47.540;19.072;2022-12-18T17:50:06;102833.69;;;-1.18;74.14
75497;BME280;64074;47.540;19.072;2022-12-18T17:53:38;102826.53;;;-1.18;75.23
75497;BME280;64074;47.540;19.072;2022-12-18T17:56:52;102826.16;;;-1.23;74.90
75497;BME280;64074;47.540;19.072;2022-12-18T17:59:56;102822.44;;;-1.30;75.17
75497;BME280;64074;47.540;19.072;2022-12-18T18:02:59;102821.09;;;-1.34;74.95
75497;BME280;64074;47.540;19.072;2022-12-18T18:06:07;102822.53;;;-1.40;75.60
75497;BME280;64074;47.540;19.072;2022-12-18T18:09:19;102823.34;;;-1.47;76.07
75497;BME280;64074;47.540;19.072;2022-12-18T18:12:39;102828.34;;;-1.44;77.29
75497;BME280;64074;47.540;19.072;2022-12-18T18:16:14;102829.56;;;-1.57;76.66
75497;BME280;64074;47.540;19.072;2022-12-18T18:19:26;102833.06;;;-1.56;74.31
75497;BME280;64074;47.540;19.072;2022-12-18T18:22:47;102834.03;;;-1.39;74.49
75497;BME280;64074;47.540;19.072;2022-12-18T18:26:08;102824.56;;;-1.34;74.82
75497;BME280;64074;47.540;19.072;2022-12-18T18:29:22;102827.03;;;-1.40;74.99
75497;BME280;64074;47.540;19.072;2022-12-18T18:32:32;102832.03;;;-1.37;74.87
75497;BME280;64074;47.540;19.072;2022-12-18T18:35:42;102841.31;;;-1.41;75.80
75497;BME280;64074;47.540;19.072;2022-12-18T18:39:03;102847.94;;;-1.45;75.92
75497;BME280;64074;47.540;19.072;2022-12-18T18:42:18;102847.34;;;-1.57;75.85